createdAt,value
2016-09-22T00:00:13.350Z,737.64
2016-09-22T00:01:13.337Z,737.63
2016-09-22T00:02:13.338Z,737.59
2016-09-22T00:03:13.324Z,737.61
2016-09-22T00:04:13.301Z,737.58
2016-09-22T00:05:13.288Z,737.6
2016-09-22T00:06:13.277Z,737.57
2016-09-22T00:07:13.274Z,737.59
2016-09-22T00:08:13.261Z,737.6
2016-09-22T00:09:13.239Z,737.58
2016-09-22T00:10:13.225Z,737.59
2016-09-22T00:11:13.213Z,737.57
2016-09-22T00:12:13.206Z,737.57
2016-09-22T00:13:13.188Z,737.62
2016-09-22T00:14:13.187Z,737.62
2016-09-22T00:15:13.175Z,737.64
2016-09-22T00:16:13.163Z,737.62
2016-09-22T00:17:13.138Z,737.62
2016-09-22T00:18:13.127Z,737.61
2016-09-22T00:19:13.114Z,737.63
2016-09-22T00:20:13.112Z,737.6
2016-09-22T00:21:13.098Z,737.59
2016-09-22T00:22:13.086Z,737.57
2016-09-22T00:23:13.074Z,737.61
2016-09-22T00:24:13.049Z,737.63
2016-09-22T00:25:13.036Z,737.57
2016-09-22T00:26:13.025Z,737.59
2016-09-22T00:27:13.023Z,737.6
2016-09-22T00:28:12.999Z,737.62
2016-09-22T00:29:12.997Z,737.6
2016-09-22T00:30:12.974Z,737.63
2016-09-22T00:31:12.961Z,737.62
2016-09-22T00:32:12.958Z,737.61
2016-09-22T00:33:12.944Z,737.64
2016-09-22T00:34:12.922Z,737.65
2016-09-22T00:35:12.909Z,737.62
2016-09-22T00:36:12.896Z,737.62
2016-09-22T00:37:12.884Z,737.59
2016-09-22T00:38:12.870Z,737.61
2016-09-22T00:39:12.858Z,737.63
2016-09-22T00:40:12.856Z,737.6
2016-09-22T00:41:12.833Z,737.63
2016-09-22T00:42:12.821Z,737.65
2016-09-22T00:43:12.807Z,737.61
2016-09-22T00:44:12.805Z,737.66
2016-09-22T00:45:12.793Z,737.62
2016-09-22T00:46:12.781Z,737.63
2016-09-22T00:47:12.766Z,737.63
2016-09-22T00:48:12.745Z,737.58
2016-09-22T00:49:12.743Z,737.63
2016-09-22T00:50:12.726Z,737.6
2016-09-22T00:51:12.717Z,737.6
2016-09-22T00:52:12.694Z,737.62
2016-09-22T00:53:12.681Z,737.58
2016-09-22T00:54:12.678Z,737.61
2016-09-22T00:55:12.655Z,737.59
2016-09-22T00:56:12.653Z,737.64
2016-09-22T00:57:12.630Z,737.65
2016-09-22T00:58:12.617Z,737.64
2016-09-22T00:59:12.615Z,737.6
2016-09-22T01:00:12.592Z,737.63
2016-09-22T01:01:12.578Z,737.59
2016-09-22T01:02:12.564Z,737.59
2016-09-22T01:03:12.551Z,737.59
2016-09-22T01:04:12.550Z,737.59
2016-09-22T01:05:12.525Z,737.61
2016-09-22T01:06:12.513Z,737.61
2016-09-22T01:07:12.502Z,737.59
2016-09-22T01:08:12.500Z,737.56
2016-09-22T01:09:12.486Z,737.57
2016-09-22T01:10:12.469Z,737.58
2016-09-22T01:11:12.449Z,737.55
2016-09-22T01:12:12.447Z,737.55
2016-09-22T01:13:12.435Z,737.56
2016-09-22T01:14:12.420Z,737.51
2016-09-22T01:15:12.409Z,737.55
2016-09-22T01:16:12.396Z,737.54
2016-09-22T01:17:12.383Z,737.53
2016-09-22T01:18:12.369Z,737.53
2016-09-22T01:19:12.358Z,737.52
2016-09-22T01:20:12.333Z,737.52
2016-09-22T01:21:12.320Z,737.51
2016-09-22T01:22:12.308Z,737.56
2016-09-22T01:23:12.293Z,737.55
2016-09-22T01:24:12.281Z,737.54
2016-09-22T01:25:12.279Z,737.54
2016-09-22T01:26:12.267Z,737.55
2016-09-22T01:27:12.254Z,737.55
2016-09-22T01:28:12.240Z,737.55
2016-09-22T01:29:12.229Z,737.55
2016-09-22T01:30:12.205Z,737.56
2016-09-22T01:31:12.192Z,737.56
2016-09-22T01:32:12.179Z,737.57
2016-09-22T01:33:12.177Z,737.57
2016-09-22T01:34:12.153Z,737.54
2016-09-22T01:35:12.150Z,737.51
2016-09-22T01:36:12.127Z,737.54
2016-09-22T01:37:12.126Z,737.54
2016-09-22T01:38:12.113Z,737.53
2016-09-22T01:39:12.100Z,737.54
2016-09-22T01:40:12.077Z,737.54
2016-09-22T01:41:12.075Z,737.54
2016-09-22T01:42:12.051Z,737.52
2016-09-22T01:43:12.038Z,737.51
2016-09-22T01:44:12.036Z,737.5
2016-09-22T01:45:12.012Z,737.5
2016-09-22T01:46:12.011Z,737.49
2016-09-22T01:47:11.998Z,737.51
2016-09-22T01:48:11.985Z,737.5
2016-09-22T01:49:11.960Z,737.49
2016-09-22T01:50:11.959Z,737.47
2016-09-22T01:51:11.946Z,737.46
2016-09-22T01:52:11.934Z,737.51
2016-09-22T01:53:11.919Z,737.46
2016-09-22T01:54:11.907Z,737.45
2016-09-22T01:55:11.894Z,737.46
2016-09-22T01:56:11.881Z,737.51
2016-09-22T01:57:11.867Z,737.47
2016-09-22T01:58:11.942Z,737.44
2016-09-22T01:59:11.842Z,737.46
2016-09-22T02:00:11.827Z,737.46
2016-09-22T02:01:11.815Z,737.47
2016-09-22T02:02:11.802Z,737.5
2016-09-22T02:03:11.778Z,737.5
2016-09-22T02:04:11.765Z,737.51
2016-09-22T02:05:11.752Z,737.52
2016-09-22T02:06:11.738Z,737.48
2016-09-22T02:07:11.735Z,737.51
2016-09-22T02:08:11.711Z,737.53
2016-09-22T02:09:11.710Z,737.56
2016-09-22T02:10:11.687Z,737.55
2016-09-22T02:11:11.671Z,737.57
2016-09-22T02:12:11.671Z,737.58
2016-09-22T02:13:11.647Z,737.56
2016-09-22T02:14:11.634Z,737.55
2016-09-22T02:15:11.620Z,737.55
2016-09-22T02:16:11.619Z,737.57
2016-09-22T02:17:11.596Z,737.58
2016-09-22T02:18:11.592Z,737.53
2016-09-22T02:19:11.567Z,737.57
2016-09-22T02:20:11.556Z,737.57
2016-09-22T02:21:11.553Z,737.56
2016-09-22T02:22:11.540Z,737.55
2016-09-22T02:23:11.526Z,737.55
2016-09-22T02:24:11.514Z,737.57
2016-09-22T02:25:11.489Z,737.57
2016-09-22T02:26:11.476Z,737.59
2016-09-22T02:27:11.475Z,737.59
2016-09-22T02:28:11.450Z,737.63
2016-09-22T02:29:11.448Z,737.54
2016-09-22T02:30:11.434Z,737.59
2016-09-22T02:31:11.413Z,737.59
2016-09-22T02:32:11.409Z,737.58
2016-09-22T02:33:11.385Z,737.57
2016-09-22T02:34:11.383Z,737.57
2016-09-22T02:35:11.371Z,737.52
2016-09-22T02:36:11.347Z,737.57
2016-09-22T02:37:11.343Z,737.56
2016-09-22T02:38:11.331Z,737.57
2016-09-22T02:39:11.318Z,737.52
2016-09-22T02:40:11.295Z,737.55
2016-09-22T02:41:11.292Z,737.6
2016-09-22T02:42:11.280Z,737.51
2016-09-22T02:43:11.256Z,737.52
2016-09-22T02:44:11.253Z,737.54
2016-09-22T02:45:11.229Z,737.53
2016-09-22T02:46:11.227Z,737.55
2016-09-22T02:47:11.203Z,737.5
2016-09-22T02:48:11.200Z,737.56
2016-09-22T02:49:11.188Z,737.54
2016-09-22T02:50:11.175Z,737.55
2016-09-22T02:51:11.151Z,737.56
2016-09-22T02:52:11.148Z,737.53
2016-09-22T02:53:11.123Z,737.54
2016-09-22T02:54:11.122Z,737.51
2016-09-22T02:55:11.097Z,737.56
2016-09-22T02:56:11.095Z,737.54
2016-09-22T02:57:11.082Z,737.58
2016-09-22T02:58:11.068Z,737.56
2016-09-22T02:59:11.054Z,737.6
2016-09-22T03:00:11.041Z,737.58
2016-09-22T03:01:11.017Z,737.58
2016-09-22T03:02:11.003Z,737.6
2016-09-22T03:03:10.989Z,737.61
2016-09-22T03:04:10.976Z,737.59
2016-09-22T03:05:10.964Z,737.59
2016-09-22T03:06:10.950Z,737.61
2016-09-22T03:07:10.947Z,737.59
2016-09-22T03:08:10.935Z,737.6
2016-09-22T03:09:10.910Z,737.58
2016-09-22T03:10:10.896Z,737.57
2016-09-22T03:11:10.893Z,737.6
2016-09-22T03:12:10.880Z,737.58
2016-09-22T03:13:10.856Z,737.56
2016-09-22T03:14:10.854Z,737.59
2016-09-22T03:15:10.841Z,737.57
2016-09-22T03:16:10.828Z,737.61
2016-09-22T03:17:10.803Z,737.56
2016-09-22T03:18:10.789Z,737.61
2016-09-22T03:19:10.776Z,737.58
2016-09-22T03:20:10.762Z,737.64
2016-09-22T03:21:10.760Z,737.62
2016-09-22T03:22:10.736Z,737.59
2016-09-22T03:23:10.734Z,737.57
2016-09-22T03:24:10.709Z,737.6
2016-09-22T03:25:10.696Z,737.57
2016-09-22T03:26:10.682Z,737.59
2016-09-22T03:27:10.669Z,737.54
2016-09-22T03:28:10.654Z,737.56
2016-09-22T03:29:10.642Z,737.57
2016-09-22T03:30:10.628Z,737.58
2016-09-22T03:31:10.625Z,737.59
2016-09-22T03:32:10.611Z,737.58
2016-09-22T03:33:10.586Z,737.58
2016-09-22T03:34:10.585Z,737.55
2016-09-22T03:35:10.560Z,737.55
2016-09-22T03:36:10.557Z,737.55
2016-09-22T03:37:10.543Z,737.58
2016-09-22T03:38:10.531Z,737.53
2016-09-22T03:39:10.505Z,737.55
2016-09-22T03:40:10.489Z,737.55
2016-09-22T03:41:10.490Z,737.59
2016-09-22T03:42:10.476Z,737.56
2016-09-22T03:43:10.462Z,737.53
2016-09-22T03:44:10.449Z,737.55
2016-09-22T03:45:10.439Z,737.53
2016-09-22T03:46:10.421Z,737.52
2016-09-22T03:47:10.393Z,737.52
2016-09-22T03:48:10.394Z,737.54
2016-09-22T03:49:10.366Z,737.54
2016-09-22T03:50:10.367Z,737.54
2016-09-22T03:51:10.339Z,737.55
2016-09-22T03:52:10.341Z,737.6
2016-09-22T03:53:10.326Z,737.56
2016-09-22T03:54:10.313Z,737.51
2016-09-22T03:55:10.284Z,737.53
2016-09-22T03:56:10.288Z,737.58
2016-09-22T03:57:10.256Z,737.58
2016-09-22T03:58:10.243Z,737.64
2016-09-22T03:59:10.229Z,737.63
2016-09-22T04:00:10.216Z,737.58
2016-09-22T04:01:10.203Z,737.55
2016-09-22T04:02:10.187Z,737.58
2016-09-22T04:03:10.188Z,737.57
2016-09-22T04:04:10.174Z,737.64
2016-09-22T04:05:10.161Z,737.67
2016-09-22T04:06:10.137Z,737.6
2016-09-22T04:07:10.134Z,737.61
2016-09-22T04:08:10.119Z,737.62
2016-09-22T04:09:10.104Z,737.64
2016-09-22T04:10:10.091Z,737.61
2016-09-22T04:11:10.066Z,737.58
2016-09-22T04:12:10.063Z,737.59
2016-09-22T04:13:10.038Z,737.59
2016-09-22T04:14:10.024Z,737.6
2016-09-22T04:15:10.015Z,737.61
2016-09-22T04:16:10.000Z,737.56
2016-09-22T04:17:09.983Z,737.59
2016-09-22T04:18:09.970Z,737.59
2016-09-22T04:19:09.960Z,737.59
2016-09-22T04:20:09.941Z,737.56
2016-09-22T04:21:09.926Z,737.56
2016-09-22T04:22:09.913Z,737.52
2016-09-22T04:23:09.910Z,737.55
2016-09-22T04:24:09.885Z,737.55
2016-09-22T04:25:09.883Z,737.55
2016-09-22T04:26:09.867Z,737.55
2016-09-22T04:27:09.855Z,737.57
2016-09-22T04:28:09.829Z,737.54
2016-09-22T04:29:09.815Z,737.56
2016-09-22T04:30:09.808Z,737.56
2016-09-22T04:31:09.786Z,737.59
2016-09-22T04:32:09.774Z,737.57
2016-09-22T04:33:09.770Z,737.55
2016-09-22T04:34:09.757Z,737.62
2016-09-22T04:35:09.732Z,737.67
2016-09-22T04:36:09.718Z,737.66
2016-09-22T04:37:09.704Z,737.66
2016-09-22T04:38:09.690Z,737.69
2016-09-22T04:39:09.677Z,737.66
2016-09-22T04:40:09.663Z,737.69
2016-09-22T04:41:09.660Z,737.65
2016-09-22T04:42:09.647Z,737.66
2016-09-22T04:43:09.623Z,737.69
2016-09-22T04:44:09.619Z,737.7
2016-09-22T04:45:09.594Z,737.67
2016-09-22T04:46:09.580Z,737.7
2016-09-22T04:47:09.567Z,737.68
2016-09-22T04:48:09.552Z,737.75
2016-09-22T04:49:09.550Z,737.72
2016-09-22T04:50:09.526Z,737.73
2016-09-22T04:51:09.511Z,737.75
2016-09-22T04:52:09.509Z,737.69
2016-09-22T04:53:09.485Z,737.74
2016-09-22T04:54:09.481Z,737.74
2016-09-22T04:55:09.467Z,737.76
2016-09-22T04:56:09.442Z,737.74
2016-09-22T04:57:09.429Z,737.69
2016-09-22T04:58:09.415Z,737.72
2016-09-22T04:59:09.401Z,737.77
2016-09-22T05:00:09.386Z,737.77
2016-09-22T05:01:09.373Z,737.76
2016-09-22T05:02:09.371Z,737.76
2016-09-22T05:03:09.346Z,737.76
2016-09-22T05:04:09.333Z,737.8
2016-09-22T05:05:09.319Z,737.73
2016-09-22T05:06:09.318Z,737.75
2016-09-22T05:07:09.290Z,737.78
2016-09-22T05:08:09.288Z,737.79
2016-09-22T05:09:09.275Z,737.83
2016-09-22T05:10:09.248Z,737.77
2016-09-22T05:11:09.235Z,737.77
2016-09-22T05:12:09.233Z,737.78
2016-09-22T05:13:09.207Z,737.76
2016-09-22T05:14:09.206Z,737.77
2016-09-22T05:15:09.193Z,737.78
2016-09-22T05:16:09.169Z,737.81
2016-09-22T05:17:09.165Z,737.81
2016-09-22T05:18:09.153Z,737.82
2016-09-22T05:19:09.128Z,737.8
2016-09-22T05:20:09.115Z,737.85
2016-09-22T05:21:09.100Z,737.82
2016-09-22T05:22:09.087Z,737.81
2016-09-22T05:23:09.085Z,737.87
2016-09-22T05:24:09.061Z,737.87
2016-09-22T05:25:09.060Z,737.85
2016-09-22T05:26:09.047Z,737.83
2016-09-22T05:27:09.023Z,737.87
2016-09-22T05:28:09.020Z,737.87
2016-09-22T05:29:09.007Z,737.9
2016-09-22T05:30:08.982Z,737.88
2016-09-22T05:31:08.970Z,737.9
2016-09-22T05:32:08.968Z,737.95
2016-09-22T05:33:08.945Z,737.95
2016-09-22T05:34:08.932Z,737.94
2016-09-22T05:35:08.929Z,737.99
2016-09-22T05:36:08.905Z,737.98
2016-09-22T05:37:08.902Z,737.95
2016-09-22T05:38:08.879Z,737.97
2016-09-22T05:39:08.877Z,737.94
2016-09-22T05:40:08.864Z,737.99
2016-09-22T05:41:08.840Z,738.01
2016-09-22T05:42:08.828Z,737.94
2016-09-22T05:43:08.814Z,737.98
2016-09-22T05:44:08.802Z,737.98
2016-09-22T05:45:08.789Z,737.99
2016-09-22T05:46:08.787Z,737.96
2016-09-22T05:47:08.774Z,737.98
2016-09-22T05:48:08.763Z,737.98
2016-09-22T05:49:08.738Z,737.92
2016-09-22T05:50:08.737Z,737.92
2016-09-22T05:51:08.713Z,737.95
2016-09-22T05:52:08.700Z,737.98
2016-09-22T05:53:08.698Z,737.94
2016-09-22T05:54:08.673Z,737.95
2016-09-22T05:55:08.672Z,737.94
2016-09-22T05:56:08.658Z,737.98
2016-09-22T05:57:08.634Z,737.99
2016-09-22T05:58:08.622Z,737.96
2016-09-22T05:59:08.608Z,737.95
2016-09-22T06:00:08.596Z,738
2016-09-22T06:01:08.582Z,737.99
2016-09-22T06:02:08.567Z,738
2016-09-22T06:03:08.557Z,737.98
2016-09-22T06:04:08.553Z,738.01
2016-09-22T06:05:08.529Z,738
2016-09-22T06:06:08.527Z,738.02
2016-09-22T06:07:08.513Z,738.02
2016-09-22T06:08:08.499Z,738
2016-09-22T06:09:08.484Z,737.99
2016-09-22T06:10:08.473Z,738.04
2016-09-22T06:11:08.459Z,738
2016-09-22T06:12:08.433Z,738.07
2016-09-22T06:13:08.632Z,738.01
2016-09-22T06:14:08.405Z,738.03
2016-09-22T06:15:08.605Z,738.06
2016-09-22T06:16:08.379Z,738.12
2016-09-22T06:17:08.376Z,738.12
2016-09-22T06:18:08.351Z,738.1
2016-09-22T06:19:08.336Z,738.12
2016-09-22T06:20:08.333Z,738.13
2016-09-22T06:21:08.319Z,738.18
2016-09-22T06:22:08.306Z,738.13
2016-09-22T06:23:08.281Z,738.17
2016-09-22T06:24:08.278Z,738.18
2016-09-22T06:25:08.264Z,738.16
2016-09-22T06:26:08.249Z,738.14
2016-09-22T06:27:08.235Z,738.19
2016-09-22T06:28:08.209Z,738.18
2016-09-22T06:29:08.196Z,738.14
2016-09-22T06:30:08.193Z,738.24
2016-09-22T06:31:08.179Z,738.18
2016-09-22T06:32:08.165Z,738.16
2016-09-22T06:33:08.141Z,738.13
2016-09-22T06:34:08.137Z,738.26
2016-09-22T06:35:08.112Z,738.22
2016-09-22T06:36:08.110Z,738.27
2016-09-22T06:37:08.095Z,738.21
2016-09-22T06:38:08.081Z,738.23
2016-09-22T06:39:08.067Z,738.25
2016-09-22T06:40:08.042Z,738.32
2016-09-22T06:41:08.030Z,738.31
2016-09-22T06:42:08.026Z,738.28
2016-09-22T06:43:08.001Z,738.21
2016-09-22T06:44:07.988Z,738.27
2016-09-22T06:45:07.974Z,738.33
2016-09-22T06:46:07.961Z,738.32
2016-09-22T06:47:07.947Z,738.3
2016-09-22T06:48:07.945Z,738.32
2016-09-22T06:49:07.920Z,738.28
2016-09-22T06:50:07.905Z,738.27
2016-09-22T06:51:07.903Z,738.26
2016-09-22T06:52:07.879Z,738.31
2016-09-22T06:53:07.864Z,738.31
2016-09-22T06:54:07.854Z,738.37
2016-09-22T06:55:07.849Z,738.43
2016-09-22T06:56:07.834Z,738.39
2016-09-22T06:57:07.821Z,738.45
2016-09-22T06:58:07.809Z,738.44
2016-09-22T06:59:07.795Z,738.44
2016-09-22T07:00:07.771Z,738.46
2016-09-22T07:01:07.758Z,738.47
2016-09-22T07:02:07.755Z,738.49
2016-09-22T07:03:07.731Z,738.51
2016-09-22T07:04:07.728Z,738.48
2016-09-22T07:05:07.715Z,738.45
2016-09-22T07:06:07.692Z,738.51
2016-09-22T07:07:07.688Z,738.43
2016-09-22T07:08:07.676Z,738.44
2016-09-22T07:09:07.652Z,738.5
2016-09-22T07:10:07.638Z,738.47
2016-09-22T07:11:07.626Z,738.56
2016-09-22T07:12:07.611Z,738.62
2016-09-22T07:13:07.599Z,738.54
2016-09-22T07:14:07.595Z,738.65
2016-09-22T07:15:07.584Z,738.65
2016-09-22T07:16:07.572Z,738.63
2016-09-22T07:17:07.557Z,738.67
2016-09-22T07:18:07.545Z,738.7
2016-09-22T07:19:07.533Z,738.7
2016-09-22T07:20:07.510Z,738.78
2016-09-22T07:21:07.496Z,738.79
2016-09-22T07:22:07.494Z,738.76
2016-09-22T07:23:07.483Z,738.85
2016-09-22T07:24:07.460Z,738.83
2016-09-22T07:25:07.458Z,738.87
2016-09-22T07:26:07.445Z,738.89
2016-09-22T07:27:07.421Z,738.87
2016-09-22T07:28:07.410Z,738.88
2016-09-22T07:29:07.396Z,738.84
2016-09-22T07:30:07.385Z,738.93
2016-09-22T07:31:07.383Z,738.91
2016-09-22T07:32:07.371Z,739.02
2016-09-22T07:33:07.347Z,738.88
2016-09-22T07:34:07.337Z,738.99
2016-09-22T07:35:07.336Z,738.97
2016-09-22T07:36:07.322Z,739.03
2016-09-22T07:37:07.311Z,738.96
2016-09-22T07:38:07.289Z,739.06
2016-09-22T07:39:07.293Z,739.02
2016-09-22T07:40:07.276Z,739.06
2016-09-22T07:41:07.253Z,739.06
2016-09-22T07:42:07.241Z,739.09
2016-09-22T07:43:07.240Z,739.06
2016-09-22T07:44:07.219Z,739.06
2016-09-22T07:45:07.206Z,739.02
2016-09-22T07:46:07.213Z,739.05
2016-09-22T07:47:07.184Z,739.08
2016-09-22T07:48:07.184Z,739.09
2016-09-22T07:49:07.173Z,739.06
2016-09-22T07:50:07.161Z,739.06
2016-09-22T07:51:07.139Z,739.09
2016-09-22T07:52:07.137Z,739.11
2016-09-22T07:53:07.117Z,739.13
2016-09-22T07:54:07.104Z,739.1
2016-09-22T07:55:07.094Z,739.1
2016-09-22T07:56:07.083Z,739.15
2016-09-22T07:57:07.071Z,739.18
2016-09-22T07:58:07.069Z,739.18
2016-09-22T07:59:07.048Z,739.12
2016-09-22T08:00:07.037Z,739.21
2016-09-22T08:01:07.037Z,739.14
2016-09-22T08:02:07.024Z,739.22
2016-09-22T08:03:07.014Z,739.19
2016-09-22T08:04:06.992Z,739.25
2016-09-22T08:05:06.979Z,739.22
2016-09-22T08:06:06.969Z,739.27
2016-09-22T08:07:06.958Z,739.22
2016-09-22T08:08:06.957Z,739.29
2016-09-22T08:09:06.933Z,739.29
2016-09-22T08:10:06.934Z,739.29
2016-09-22T08:11:06.912Z,739.31
2016-09-22T08:12:06.913Z,739.33
2016-09-22T08:13:06.890Z,739.38
2016-09-22T08:14:06.893Z,739.31
2016-09-22T08:15:06.879Z,739.38
2016-09-22T08:16:06.866Z,739.41
2016-09-22T08:17:06.845Z,739.35
2016-09-22T08:18:06.834Z,739.36
2016-09-22T08:19:06.834Z,739.38
2016-09-22T08:20:06.812Z,739.41
2016-09-22T08:21:06.810Z,739.38
2016-09-22T08:22:06.801Z,739.45
2016-09-22T08:23:06.790Z,739.45
2016-09-22T08:24:06.779Z,739.4
2016-09-22T08:25:06.768Z,739.37
2016-09-22T08:26:06.748Z,739.46
2016-09-22T08:27:06.735Z,739.47
2016-09-22T08:28:06.725Z,739.46
2016-09-22T08:29:06.714Z,739.47
2016-09-22T08:30:06.715Z,739.5
2016-09-22T08:31:06.705Z,739.45
2016-09-22T08:32:06.684Z,739.46
2016-09-22T08:33:06.674Z,739.46
2016-09-22T08:34:06.675Z,739.53
2016-09-22T08:35:06.665Z,739.47
2016-09-22T08:36:06.656Z,739.46
2016-09-22T08:37:06.634Z,739.45
2016-09-22T08:38:06.635Z,739.43
2016-09-22T08:39:06.614Z,739.48
2016-09-22T08:40:06.603Z,739.51
2016-09-22T08:41:06.604Z,739.48
2016-09-22T08:42:06.593Z,739.43
2016-09-22T08:43:06.584Z,739.5
2016-09-22T08:44:06.572Z,739.43
2016-09-22T08:45:06.562Z,739.46
2016-09-22T08:46:06.542Z,739.5
2016-09-22T08:47:06.531Z,739.46
2016-09-22T08:48:06.521Z,739.54
2016-09-22T08:49:06.521Z,739.54
2016-09-22T08:50:06.501Z,739.51
2016-09-22T08:51:06.490Z,739.54
2016-09-22T08:52:06.480Z,739.49
2016-09-22T08:53:06.469Z,739.6
2016-09-22T08:54:06.471Z,739.57
2016-09-22T08:55:06.449Z,739.65
2016-09-22T08:56:06.440Z,739.6
2016-09-22T08:57:06.440Z,739.55
2016-09-22T08:58:06.420Z,739.58
2016-09-22T08:59:06.420Z,739.59
2016-09-22T09:00:06.398Z,739.54
2016-09-22T09:01:06.390Z,739.56
2016-09-22T09:02:06.380Z,739.55
2016-09-22T09:03:06.370Z,739.58
2016-09-22T09:04:06.370Z,739.59
2016-09-22T09:05:06.350Z,739.65
2016-09-22T09:06:06.350Z,739.67
2016-09-22T09:07:06.340Z,739.65
2016-09-22T09:08:06.320Z,739.61
2016-09-22T09:09:06.308Z,739.7
2016-09-22T09:10:06.300Z,739.69
2016-09-22T09:11:06.300Z,739.7
2016-09-22T09:12:06.279Z,739.7
2016-09-22T09:13:06.269Z,739.65
2016-09-22T09:14:06.260Z,739.69
2016-09-22T09:15:06.258Z,739.71
2016-09-22T09:16:06.253Z,739.69
2016-09-22T09:17:06.230Z,739.77
2016-09-22T09:18:06.219Z,739.77
2016-09-22T09:19:06.209Z,739.82
2016-09-22T09:20:06.200Z,739.79
2016-09-22T09:21:06.201Z,739.83
2016-09-22T09:22:06.191Z,739.78
2016-09-22T09:23:06.182Z,739.83
2016-09-22T09:24:06.172Z,739.81
2016-09-22T09:25:06.163Z,739.8
2016-09-22T09:26:06.152Z,739.85
2016-09-22T09:27:06.143Z,739.82
2016-09-22T09:28:06.134Z,739.85
2016-09-22T09:29:06.113Z,739.84
2016-09-22T09:30:06.114Z,739.83
2016-09-22T09:31:06.105Z,739.84
2016-09-22T09:32:06.085Z,739.87
2016-09-22T09:33:06.074Z,739.9
2016-09-22T09:34:06.076Z,739.91
2016-09-22T09:35:06.065Z,739.97
2016-09-22T09:36:06.057Z,739.87
2016-09-22T09:37:06.037Z,739.93
2016-09-22T09:38:06.031Z,739.99
2016-09-22T09:39:06.016Z,740.01
2016-09-22T09:40:06.006Z,739.94
2016-09-22T09:41:06.009Z,739.98
2016-09-22T09:42:05.989Z,739.96
2016-09-22T09:43:05.991Z,740
2016-09-22T09:44:05.982Z,739.95
2016-09-22T09:45:05.962Z,739.96
2016-09-22T09:46:05.963Z,739.99
2016-09-22T09:47:05.956Z,739.93
2016-09-22T09:48:05.936Z,739.98
2016-09-22T09:49:05.927Z,739.89
2016-09-22T09:50:05.930Z,739.92
2016-09-22T09:51:05.909Z,739.97
2016-09-22T09:52:05.912Z,739.98
2016-09-22T09:53:05.904Z,739.99
2016-09-22T09:54:05.886Z,739.99
2016-09-22T09:55:05.876Z,739.97
2016-09-22T09:56:05.880Z,740.03
2016-09-22T09:57:05.871Z,739.98
2016-09-22T09:58:05.853Z,740.01
2016-09-22T09:59:05.842Z,739.96
2016-09-22T10:00:05.835Z,740.03
2016-09-22T10:01:05.827Z,739.98
2016-09-22T10:02:05.830Z,739.98
2016-09-22T10:03:05.809Z,740.02
2016-09-22T10:04:05.813Z,739.98
2016-09-22T10:05:05.805Z,740.03
2016-09-22T10:06:05.799Z,740
2016-09-22T10:07:05.788Z,740.03
2016-09-22T10:08:05.779Z,740.06
2016-09-22T10:09:05.760Z,740.12
2016-09-22T10:10:05.752Z,740.07
2016-09-22T10:11:05.754Z,740.05
2016-09-22T10:12:05.747Z,740.12
2016-09-22T10:13:05.735Z,740.07
2016-09-22T10:14:05.727Z,740.09
2016-09-22T10:15:05.707Z,740.08
2016-09-22T10:16:05.697Z,740.16
2016-09-22T10:17:05.699Z,740.09
2016-09-22T10:18:05.690Z,740.15
2016-09-22T10:19:05.682Z,740.1
2016-09-22T10:20:05.672Z,740.16
2016-09-22T10:21:05.653Z,740.11
2016-09-22T10:22:05.655Z,740.14
2016-09-22T10:23:05.646Z,740.11
2016-09-22T10:24:05.627Z,740.12
2016-09-22T10:25:05.629Z,740.18
2016-09-22T10:26:05.620Z,740.12
2016-09-22T10:27:05.612Z,740.13
2016-09-22T10:28:05.606Z,740.19
2016-09-22T10:29:05.586Z,740.23
2016-09-22T10:30:05.584Z,740.22
2016-09-22T10:31:05.575Z,740.17
2016-09-22T10:32:05.566Z,740.2
2016-09-22T10:33:05.558Z,740.26
2016-09-22T10:34:05.549Z,740.27
2016-09-22T10:35:05.539Z,740.27
2016-09-22T10:36:05.520Z,740.26
2016-09-22T10:37:05.523Z,740.26
2016-09-22T10:38:05.515Z,740.28
2016-09-22T10:39:05.494Z,740.36
2016-09-22T10:40:05.486Z,740.32
2016-09-22T10:41:05.488Z,740.28
2016-09-22T10:42:05.467Z,740.32
2016-09-22T10:43:05.460Z,740.31
2016-09-22T10:44:05.462Z,740.35
2016-09-22T10:45:05.453Z,740.3
2016-09-22T10:46:05.441Z,740.26
2016-09-22T10:47:05.433Z,740.36
2016-09-22T10:48:05.426Z,740.34
2016-09-22T10:49:05.416Z,740.36
2016-09-22T10:50:05.407Z,740.32
2016-09-22T10:51:05.393Z,740.34
2016-09-22T10:52:05.388Z,740.41
2016-09-22T10:53:05.365Z,740.36
2016-09-22T10:54:05.367Z,740.39
2016-09-22T10:55:05.348Z,740.39
2016-09-22T10:56:05.338Z,740.38
2016-09-22T10:57:05.336Z,740.4
2016-09-22T10:58:05.317Z,740.41
2016-09-22T10:59:05.309Z,740.45
2016-09-22T11:00:05.313Z,740.41
2016-09-22T11:01:05.292Z,740.45
2016-09-22T11:02:05.277Z,740.46
2016-09-22T11:03:05.278Z,740.47
2016-09-22T11:04:05.269Z,740.51
2016-09-22T11:05:05.260Z,740.46
2016-09-22T11:06:05.250Z,740.51
2016-09-22T11:07:05.230Z,740.44
2016-09-22T11:08:05.221Z,740.51
2016-09-22T11:09:05.223Z,740.48
2016-09-22T11:10:05.201Z,740.45
2016-09-22T11:11:05.194Z,740.47
2016-09-22T11:12:05.184Z,740.45
2016-09-22T11:13:05.185Z,740.44
2016-09-22T11:14:05.178Z,740.44
2016-09-22T11:15:05.169Z,740.44
2016-09-22T11:16:05.166Z,740.46
2016-09-22T11:17:05.142Z,740.48
2016-09-22T11:18:05.132Z,740.46
2016-09-22T11:19:05.124Z,740.5
2016-09-22T11:20:05.127Z,740.46
2016-09-22T11:21:05.109Z,740.48
2016-09-22T11:22:05.112Z,740.51
2016-09-22T11:23:05.092Z,740.5
2016-09-22T11:24:05.084Z,740.5
2016-09-22T11:25:05.078Z,740.52
2016-09-22T11:26:05.070Z,740.54
2016-09-22T11:27:05.061Z,740.51
2016-09-22T11:28:05.066Z,740.5
2016-09-22T11:29:05.058Z,740.57
2016-09-22T11:30:05.039Z,740.55
2016-09-22T11:31:05.044Z,740.6
2016-09-22T11:32:05.036Z,740.58
2016-09-22T11:33:05.020Z,740.54
2016-09-22T11:34:05.023Z,740.57
2016-09-22T11:35:05.017Z,740.57
2016-09-22T11:36:05.000Z,740.56
2016-09-22T11:37:05.004Z,740.56
2016-09-22T11:38:04.997Z,740.55
2016-09-22T11:39:04.980Z,740.59
2016-09-22T11:40:04.976Z,740.59
2016-09-22T11:41:04.978Z,740.57
2016-09-22T11:42:04.978Z,740.59
2016-09-22T11:43:04.956Z,740.62
2016-09-22T11:44:04.962Z,740.55
2016-09-22T11:45:04.945Z,740.58
2016-09-22T11:46:04.939Z,740.54
2016-09-22T11:47:04.944Z,740.51
2016-09-22T11:48:04.927Z,740.48
2016-09-22T11:49:04.931Z,740.49
2016-09-22T11:50:04.917Z,740.5
2016-09-22T11:51:04.919Z,740.49
2016-09-22T11:52:04.901Z,740.54
2016-09-22T11:53:04.906Z,740.5
2016-09-22T11:54:04.900Z,740.52
2016-09-22T11:55:04.883Z,740.56
2016-09-22T11:56:04.876Z,740.51
2016-09-22T11:57:04.871Z,740.44
2016-09-22T11:58:04.876Z,740.46
2016-09-22T11:59:04.858Z,740.42
2016-09-22T12:00:04.864Z,740.44
2016-09-22T12:01:04.846Z,740.44
2016-09-22T12:02:04.841Z,740.41
2016-09-22T12:03:04.844Z,740.49
2016-09-22T12:04:04.828Z,740.46
2016-09-22T12:05:04.821Z,740.4
2016-09-22T12:06:04.825Z,740.41
2016-09-22T12:07:04.808Z,740.45
2016-09-22T12:08:04.812Z,740.47
2016-09-22T12:09:04.806Z,740.47
2016-09-22T12:10:04.787Z,740.48
2016-09-22T12:11:04.792Z,740.43
2016-09-22T12:12:04.786Z,740.4
2016-09-22T12:13:04.769Z,740.42
2016-09-22T12:14:04.772Z,740.45
2016-09-22T12:15:04.754Z,740.48
2016-09-22T12:16:04.760Z,740.48
2016-09-22T12:17:04.741Z,740.43
2016-09-22T12:18:04.734Z,740.43
2016-09-22T12:19:04.729Z,740.4
2016-09-22T12:20:04.734Z,740.47
2016-09-22T12:21:04.727Z,740.48
2016-09-22T12:22:04.721Z,740.44
2016-09-22T12:23:04.705Z,740.43
2016-09-22T12:24:04.698Z,740.43
2016-09-22T12:25:04.703Z,740.43
2016-09-22T12:26:04.685Z,740.45
2016-09-22T12:27:04.680Z,740.45
2016-09-22T12:28:04.673Z,740.49
2016-09-22T12:29:04.677Z,740.48
2016-09-22T12:30:04.662Z,740.43
2016-09-22T12:31:04.667Z,740.44